Kerschi

Alter: 34 Jahre
Land: Österreich
Schnopser seit: 11.07.2015
Fairness Rating: 100%
Gespielte Bummerl: 4189
Davon gewonnen: 2020
Siegesrate: 48%
ELO: 1094

Turnierteilnahmen

Bisher noch kein Turnier gespielt


Die letzten 25 gespielten Bummerl

Zeit Gegner Ergebnis Ende Credits Elo
05:52:57 am 22.10.2018 Hatl. 9:4 normal - 1094 (10)
05:43:59 am 22.10.2018 GT-P7500 5:9 normal - 1084 (-10)
23:43:59 am 19.10.2018 Bernadette 9:4 normal - 1094 (9)
17:26:43 am 17.10.2018 zveky 8:4 normal 20 1085 (10)
13:43:58 am 15.10.2018 Florian Fritz 4:7 normal - 1075 (-11)
13:38:43 am 15.10.2018 vrljin 4:8 normal - 1086 (-10)
21:14:54 am 14.10.2018 LG1 5:7 normal - 1096 (-9)
21:09:27 am 14.10.2018 1 PH ipad 3:8 normal - 1105 (-10)
13:22:57 am 11.10.2018 Franz 8:5 normal 20 1115 (10)
11:01:08 am 10.10.2018 Antons iPhone 8:4 normal 20 1105 (11)
05:43:43 am 10.10.2018 Almhütte 2 8:5 normal 20 1094 (11)
05:39:22 am 10.10.2018 Andrej Grobelnik 3:7 normal -20 1083 (-9)
17:50:48 am 09.10.2018 Chrisi Dangl 7:3 normal - 1092 (10)
17:45:49 am 09.10.2018 EVA-L09 7:5 normal - 1082 (8)
16:14:36 am 09.10.2018 Gábor Rozsits 7:2 normal - 1074 (12)
16:08:58 am 09.10.2018 Player 7:3 normal - 1062 (12)
16:04:57 am 09.10.2018 SuperOpa1963 8:0 normal - 1050 (19)
15:52:50 am 09.10.2018 WAS-LX1 6:8 normal - 1031 (-8)
15:48:01 am 09.10.2018 David H. 8:5 normal - 1039 (9)
15:43:59 am 09.10.2018 speedbert 5:8 normal - 1030 (-10)
15:34:25 am 09.10.2018 Beddy 0:8 normal - 1040 (-12)
15:30:56 am 09.10.2018 Hr. Werner 5:8 normal - 1052 (-7)
09:09:42 am 09.10.2018 Gerlindemaus 8:4 normal 10 1059 (11)
05:48:09 am 09.10.2018 Eljostu 7:3 normal 10 1048 (10)
05:43:28 am 09.10.2018 kuso 3:8 normal -10 1038 (-9)